logo
Search for airport 
image banner adimage banner adimage banner ad
image banner ad

HKZU - Tuum

Located in , Kenya

ICAO - , IATA -

Data provided by Airmate  

General information

Coordinates: N2°8'29" E36°45'34"
Elevation is 4583 feet MSL.
 
View others Airports in Eastern Province

Operational data

Special qualification required
Current time UTC:
Current local time:
Weather at : - ( 0 km )
METAR: EEEI 230331Z AUTO 30006KT 260V320 7000 RA SCT005/// BKN013/// OVC019/// M01/M01 Q1006
View NOTAMs / SUP AIP / TFR affecting this airport [VIEW]
Communications frequencies: [VIEW]

Runways:

RWY identifierQFULength (ft)Width (ft)SurfaceLDA (ft)
0900UNK
2700UNK

Airport contact information

Address: Kenya

Satellite view of HKZU